sensor_id;sensor_type;location;lat;lon;timestamp;P1;durP1;ratioP1;P2;durP2;ratioP2
59854;SDS011;45732;52.850;6.896;2023-09-08T00:00:41;10.82;;;8.30;;
59854;SDS011;45732;52.850;6.896;2023-09-08T00:03:06;10.77;;;8.27;;
59854;SDS011;45732;52.850;6.896;2023-09-08T00:05:32;11.95;;;8.32;;
59854;SDS011;45732;52.850;6.896;2023-09-08T00:07:58;13.00;;;8.75;;
59854;SDS011;45732;52.850;6.896;2023-09-08T00:10:23;11.00;;;8.77;;
59854;SDS011;45732;52.850;6.896;2023-09-08T00:12:49;9.95;;;8.48;;
59854;SDS011;45732;52.850;6.896;2023-09-08T00:15:15;10.75;;;8.77;;
59854;SDS011;45732;52.850;6.896;2023-09-08T00:17:40;10.48;;;8.85;;
59854;SDS011;45732;52.850;6.896;2023-09-08T00:20:06;10.55;;;8.80;;
59854;SDS011;45732;52.850;6.896;2023-09-08T00:22:33;12.05;;;8.57;;
59854;SDS011;45732;52.850;6.896;2023-09-08T00:24:59;11.48;;;8.75;;
59854;SDS011;45732;52.850;6.896;2023-09-08T00:27:25;10.95;;;9.05;;
59854;SDS011;45732;52.850;6.896;2023-09-08T00:29:51;11.27;;;8.40;;
59854;SDS011;45732;52.850;6.896;2023-09-08T00:32:16;11.18;;;8.25;;
59854;SDS011;45732;52.850;6.896;2023-09-08T00:34:42;10.68;;;8.32;;
59854;SDS011;45732;52.850;6.896;2023-09-08T00:37:08;10.93;;;8.73;;
59854;SDS011;45732;52.850;6.896;2023-09-08T00:39:38;12.05;;;9.40;;
59854;SDS011;45732;52.850;6.896;2023-09-08T00:42:03;10.65;;;8.68;;
59854;SDS011;45732;52.850;6.896;2023-09-08T00:44:29;12.05;;;8.65;;
59854;SDS011;45732;52.850;6.896;2023-09-08T00:46:55;12.25;;;9.25;;
59854;SDS011;45732;52.850;6.896;2023-09-08T00:49:21;13.55;;;9.02;;
59854;SDS011;45732;52.850;6.896;2023-09-08T00:51:47;11.68;;;9.10;;
59854;SDS011;45732;52.850;6.896;2023-09-08T00:54:14;11.95;;;8.85;;
59854;SDS011;45732;52.850;6.896;2023-09-08T00:56:40;12.60;;;9.70;;
59854;SDS011;45732;52.850;6.896;2023-09-08T00:59:06;13.00;;;10.07;;
59854;SDS011;45732;52.850;6.896;2023-09-08T01:01:33;11.23;;;9.48;;
59854;SDS011;45732;52.850;6.896;2023-09-08T01:04:00;11.77;;;9.32;;
59854;SDS011;45732;52.850;6.896;2023-09-08T01:06:26;12.15;;;9.35;;
59854;SDS011;45732;52.850;6.896;2023-09-08T01:08:53;10.07;;;8.80;;
59854;SDS011;45732;52.850;6.896;2023-09-08T01:11:20;12.02;;;9.02;;
59854;SDS011;45732;52.850;6.896;2023-09-08T01:13:46;11.13;;;9.20;;
59854;SDS011;45732;52.850;6.896;2023-09-08T01:16:12;12.32;;;9.07;;
59854;SDS011;45732;52.850;6.896;2023-09-08T01:18:38;12.38;;;9.75;;
59854;SDS011;45732;52.850;6.896;2023-09-08T01:23:57;12.65;;;9.90;;
59854;SDS011;45732;52.850;6.896;2023-09-08T01:26:41;12.48;;;10.52;;
59854;SDS011;45732;52.850;6.896;2023-09-08T01:29:07;13.68;;;11.15;;
59854;SDS011;45732;52.850;6.896;2023-09-08T01:31:35;17.33;;;12.38;;
59854;SDS011;45732;52.850;6.896;2023-09-08T01:34:03;15.07;;;11.88;;
59854;SDS011;45732;52.850;6.896;2023-09-08T01:36:32;11.82;;;10.45;;
59854;SDS011;45732;52.850;6.896;2023-09-08T01:38:59;12.10;;;10.65;;
59854;SDS011;45732;52.850;6.896;2023-09-08T01:41:25;12.13;;;10.57;;
59854;SDS011;45732;52.850;6.896;2023-09-08T01:43:51;11.75;;;10.05;;
59854;SDS011;45732;52.850;6.896;2023-09-08T01:46:16;14.60;;;10.40;;
59854;SDS011;45732;52.850;6.896;2023-09-08T01:48:42;12.27;;;9.73;;
59854;SDS011;45732;52.850;6.896;2023-09-08T01:51:08;12.70;;;10.10;;
59854;SDS011;45732;52.850;6.896;2023-09-08T01:53:33;12.15;;;9.48;;
59854;SDS011;45732;52.850;6.896;2023-09-08T01:55:59;16.60;;;10.38;;
59854;SDS011;45732;52.850;6.896;2023-09-08T01:58:25;12.50;;;10.32;;
59854;SDS011;45732;52.850;6.896;2023-09-08T02:00:51;14.90;;;10.38;;
59854;SDS011;45732;52.850;6.896;2023-09-08T02:03:17;13.18;;;10.57;;
59854;SDS011;45732;52.850;6.896;2023-09-08T02:05:43;12.38;;;10.55;;
59854;SDS011;45732;52.850;6.896;2023-09-08T02:08:09;16.33;;;12.02;;
59854;SDS011;45732;52.850;6.896;2023-09-08T02:10:35;17.13;;;12.05;;
59854;SDS011;45732;52.850;6.896;2023-09-08T02:13:04;14.68;;;11.80;;
59854;SDS011;45732;52.850;6.896;2023-09-08T02:15:29;13.75;;;11.50;;
59854;SDS011;45732;52.850;6.896;2023-09-08T02:17:56;14.20;;;11.40;;
59854;SDS011;45732;52.850;6.896;2023-09-08T02:20:21;13.95;;;11.32;;
59854;SDS011;45732;52.850;6.896;2023-09-08T02:22:49;14.18;;;11.45;;
59854;SDS011;45732;52.850;6.896;2023-09-08T02:25:18;13.85;;;11.70;;
59854;SDS011;45732;52.850;6.896;2023-09-08T02:27:44;12.77;;;11.20;;
59854;SDS011;45732;52.850;6.896;2023-09-08T02:30:09;12.52;;;11.23;;
59854;SDS011;45732;52.850;6.896;2023-09-08T02:32:35;14.48;;;10.90;;
59854;SDS011;45732;52.850;6.896;2023-09-08T02:35:01;12.73;;;10.57;;
59854;SDS011;45732;52.850;6.896;2023-09-08T02:37:26;13.10;;;10.82;;
59854;SDS011;45732;52.850;6.896;2023-09-08T02:39:52;14.43;;;11.38;;
59854;SDS011;45732;52.850;6.896;2023-09-08T02:42:18;12.55;;;10.93;;
59854;SDS011;45732;52.850;6.896;2023-09-08T02:44:43;13.90;;;12.40;;
59854;SDS011;45732;52.850;6.896;2023-09-08T02:47:09;14.10;;;12.05;;
59854;SDS011;45732;52.850;6.896;2023-09-08T02:49:35;17.55;;;11.75;;
59854;SDS011;45732;52.850;6.896;2023-09-08T02:52:01;13.43;;;11.23;;
59854;SDS011;45732;52.850;6.896;2023-09-08T02:54:26;14.23;;;12.52;;
59854;SDS011;45732;52.850;6.896;2023-09-08T02:56:52;13.45;;;12.02;;
59854;SDS011;45732;52.850;6.896;2023-09-08T02:59:18;14.55;;;12.27;;
59854;SDS011;45732;52.850;6.896;2023-09-08T03:01:44;13.20;;;11.80;;
59854;SDS011;45732;52.850;6.896;2023-09-08T03:04:09;14.55;;;12.18;;
59854;SDS011;45732;52.850;6.896;2023-09-08T03:06:35;14.68;;;11.60;;
59854;SDS011;45732;52.850;6.896;2023-09-08T03:09:01;15.43;;;12.38;;
59854;SDS011;45732;52.850;6.896;2023-09-08T03:11:26;13.88;;;12.02;;
59854;SDS011;45732;52.850;6.896;2023-09-08T03:13:52;15.80;;;12.73;;
59854;SDS011;45732;52.850;6.896;2023-09-08T03:16:18;14.13;;;12.32;;
59854;SDS011;45732;52.850;6.896;2023-09-08T03:18:44;14.23;;;12.00;;
59854;SDS011;45732;52.850;6.896;2023-09-08T03:21:09;14.77;;;12.20;;
59854;SDS011;45732;52.850;6.896;2023-09-08T03:23:39;15.80;;;12.43;;
59854;SDS011;45732;52.850;6.896;2023-09-08T03:26:06;14.10;;;12.00;;
59854;SDS011;45732;52.850;6.896;2023-09-08T03:28:33;15.15;;;12.30;;
59854;SDS011;45732;52.850;6.896;2023-09-08T03:31:00;13.45;;;11.82;;
59854;SDS011;45732;52.850;6.896;2023-09-08T03:33:26;13.35;;;11.98;;
59854;SDS011;45732;52.850;6.896;2023-09-08T03:35:52;13.30;;;11.90;;
59854;SDS011;45732;52.850;6.896;2023-09-08T03:38:17;14.77;;;12.20;;
59854;SDS011;45732;52.850;6.896;2023-09-08T03:40:43;13.50;;;11.65;;
59854;SDS011;45732;52.850;6.896;2023-09-08T03:43:09;14.18;;;12.07;;
59854;SDS011;45732;52.850;6.896;2023-09-08T03:45:35;12.68;;;11.05;;
59854;SDS011;45732;52.850;6.896;2023-09-08T03:48:00;12.45;;;11.15;;
59854;SDS011;45732;52.850;6.896;2023-09-08T03:50:26;13.95;;;11.95;;
59854;SDS011;45732;52.850;6.896;2023-09-08T03:52:52;15.02;;;12.02;;
59854;SDS011;45732;52.850;6.896;2023-09-08T03:55:18;17.58;;;12.68;;
59854;SDS011;45732;52.850;6.896;2023-09-08T03:57:44;14.23;;;12.52;;
59854;SDS011;45732;52.850;6.896;2023-09-08T04:00:10;14.48;;;13.00;;
59854;SDS011;45732;52.850;6.896;2023-09-08T04:02:37;13.73;;;12.30;;
59854;SDS011;45732;52.850;6.896;2023-09-08T04:05:03;13.45;;;12.05;;
59854;SDS011;45732;52.850;6.896;2023-09-08T04:07:29;13.13;;;11.10;;
59854;SDS011;45732;52.850;6.896;2023-09-08T04:09:54;13.48;;;11.73;;
59854;SDS011;45732;52.850;6.896;2023-09-08T04:12:20;13.40;;;11.23;;
59854;SDS011;45732;52.850;6.896;2023-09-08T04:14:46;12.98;;;11.60;;
59854;SDS011;45732;52.850;6.896;2023-09-08T04:17:11;13.57;;;11.98;;
59854;SDS011;45732;52.850;6.896;2023-09-08T04:19:37;13.70;;;11.90;;
59854;SDS011;45732;52.850;6.896;2023-09-08T04:22:03;14.32;;;11.68;;
59854;SDS011;45732;52.850;6.896;2023-09-08T04:24:28;12.73;;;11.23;;
59854;SDS011;45732;52.850;6.896;2023-09-08T04:26:54;16.30;;;12.15;;
59854;SDS011;45732;52.850;6.896;2023-09-08T04:29:20;14.85;;;11.95;;
59854;SDS011;45732;52.850;6.896;2023-09-08T04:31:45;15.95;;;13.10;;
59854;SDS011;45732;52.850;6.896;2023-09-08T04:34:11;13.95;;;12.40;;
59854;SDS011;45732;52.850;6.896;2023-09-08T04:36:37;15.73;;;12.88;;
59854;SDS011;45732;52.850;6.896;2023-09-08T04:39:02;16.83;;;13.70;;
59854;SDS011;45732;52.850;6.896;2023-09-08T04:41:28;14.93;;;12.88;;
59854;SDS011;45732;52.850;6.896;2023-09-08T04:43:54;17.10;;;13.13;;
59854;SDS011;45732;52.850;6.896;2023-09-08T04:46:20;17.95;;;13.88;;
59854;SDS011;45732;52.850;6.896;2023-09-08T04:48:46;17.42;;;13.05;;
59854;SDS011;45732;52.850;6.896;2023-09-08T04:51:11;16.77;;;13.25;;
59854;SDS011;45732;52.850;6.896;2023-09-08T04:53:37;17.13;;;13.30;;
59854;SDS011;45732;52.850;6.896;2023-09-08T04:56:03;14.07;;;12.57;;
59854;SDS011;45732;52.850;6.896;2023-09-08T04:58:29;16.58;;;12.68;;
59854;SDS011;45732;52.850;6.896;2023-09-08T05:00:54;14.45;;;12.75;;
59854;SDS011;45732;52.850;6.896;2023-09-08T05:03:21;15.13;;;12.63;;
59854;SDS011;45732;52.850;6.896;2023-09-08T05:05:46;14.30;;;12.10;;
59854;SDS011;45732;52.850;6.896;2023-09-08T05:08:12;14.63;;;13.07;;
59854;SDS011;45732;52.850;6.896;2023-09-08T05:10:37;16.17;;;12.25;;
59854;SDS011;45732;52.850;6.896;2023-09-08T05:13:03;13.27;;;11.85;;
59854;SDS011;45732;52.850;6.896;2023-09-08T05:15:29;15.77;;;12.98;;
59854;SDS011;45732;52.850;6.896;2023-09-08T05:17:56;15.68;;;12.48;;
59854;SDS011;45732;52.850;6.896;2023-09-08T05:20:21;15.60;;;12.00;;
59854;SDS011;45732;52.850;6.896;2023-09-08T05:22:47;14.23;;;11.68;;
59854;SDS011;45732;52.850;6.896;2023-09-08T05:25:13;16.92;;;11.45;;
59854;SDS011;45732;52.850;6.896;2023-09-08T05:27:39;14.38;;;11.88;;
59854;SDS011;45732;52.850;6.896;2023-09-08T05:30:05;13.65;;;12.25;;
59854;SDS011;45732;52.850;6.896;2023-09-08T05:32:31;16.60;;;12.45;;
59854;SDS011;45732;52.850;6.896;2023-09-08T05:34:57;14.05;;;12.00;;
59854;SDS011;45732;52.850;6.896;2023-09-08T05:37:23;13.38;;;11.82;;
59854;SDS011;45732;52.850;6.896;2023-09-08T05:39:48;13.40;;;12.00;;
59854;SDS011;45732;52.850;6.896;2023-09-08T05:42:14;13.85;;;11.90;;
59854;SDS011;45732;52.850;6.896;2023-09-08T05:44:40;12.77;;;11.43;;
59854;SDS011;45732;52.850;6.896;2023-09-08T05:47:05;15.13;;;12.23;;
59854;SDS011;45732;52.850;6.896;2023-09-08T05:49:31;15.52;;;12.55;;
59854;SDS011;45732;52.850;6.896;2023-09-08T05:51:57;12.52;;;10.85;;
59854;SDS011;45732;52.850;6.896;2023-09-08T05:54:22;13.35;;;11.85;;
59854;SDS011;45732;52.850;6.896;2023-09-08T05:56:48;13.65;;;11.57;;
59854;SDS011;45732;52.850;6.896;2023-09-08T05:59:14;14.95;;;11.23;;
59854;SDS011;45732;52.850;6.896;2023-09-08T06:01:39;16.40;;;11.48;;
59854;SDS011;45732;52.850;6.896;2023-09-08T06:04:06;13.70;;;11.15;;
59854;SDS011;45732;52.850;6.896;2023-09-08T06:06:31;12.50;;;11.20;;
59854;SDS011;45732;52.850;6.896;2023-09-08T06:08:57;16.88;;;11.25;;
59854;SDS011;45732;52.850;6.896;2023-09-08T06:11:23;12.75;;;11.25;;
59854;SDS011;45732;52.850;6.896;2023-09-08T06:13:48;14.25;;;11.75;;
59854;SDS011;45732;52.850;6.896;2023-09-08T06:16:14;15.13;;;11.25;;
59854;SDS011;45732;52.850;6.896;2023-09-08T06:18:40;14.15;;;11.63;;
59854;SDS011;45732;52.850;6.896;2023-09-08T06:21:06;14.95;;;11.85;;
59854;SDS011;45732;52.850;6.896;2023-09-08T06:23:32;14.77;;;11.52;;
59854;SDS011;45732;52.850;6.896;2023-09-08T06:25:59;14.15;;;11.35;;
59854;SDS011;45732;52.850;6.896;2023-09-08T06:28:26;15.52;;;11.77;;
59854;SDS011;45732;52.850;6.896;2023-09-08T06:30:52;14.40;;;11.10;;
59854;SDS011;45732;52.850;6.896;2023-09-08T06:33:19;14.57;;;11.18;;
59854;SDS011;45732;52.850;6.896;2023-09-08T06:35:45;14.93;;;12.00;;
59854;SDS011;45732;52.850;6.896;2023-09-08T06:38:12;13.45;;;11.27;;
59854;SDS011;45732;52.850;6.896;2023-09-08T06:40:37;14.38;;;12.20;;
59854;SDS011;45732;52.850;6.896;2023-09-08T06:43:04;12.73;;;11.30;;
59854;SDS011;45732;52.850;6.896;2023-09-08T06:45:29;13.65;;;11.70;;
59854;SDS011;45732;52.850;6.896;2023-09-08T06:47:55;13.30;;;11.75;;
59854;SDS011;45732;52.850;6.896;2023-09-08T06:50:21;12.63;;;11.40;;
59854;SDS011;45732;52.850;6.896;2023-09-08T06:52:48;13.05;;;11.73;;
59854;SDS011;45732;52.850;6.896;2023-09-08T06:55:17;13.30;;;11.73;;
59854;SDS011;45732;52.850;6.896;2023-09-08T06:57:43;14.77;;;11.60;;
59854;SDS011;45732;52.850;6.896;2023-09-08T07:00:09;13.07;;;11.55;;
59854;SDS011;45732;52.850;6.896;2023-09-08T07:02:38;15.13;;;11.68;;
59854;SDS011;45732;52.850;6.896;2023-09-08T07:05:04;15.50;;;12.48;;
59854;SDS011;45732;52.850;6.896;2023-09-08T07:07:34;14.25;;;12.05;;
59854;SDS011;45732;52.850;6.896;2023-09-08T07:10:01;14.68;;;11.88;;
59854;SDS011;45732;52.850;6.896;2023-09-08T07:12:28;15.55;;;12.10;;
59854;SDS011;45732;52.850;6.896;2023-09-08T07:14:53;13.88;;;11.63;;
59854;SDS011;45732;52.850;6.896;2023-09-08T07:17:19;13.13;;;11.00;;
59854;SDS011;45732;52.850;6.896;2023-09-08T07:19:44;13.70;;;11.75;;
59854;SDS011;45732;52.850;6.896;2023-09-08T07:22:10;13.50;;;11.18;;
59854;SDS011;45732;52.850;6.896;2023-09-08T07:24:36;13.55;;;11.40;;
59854;SDS011;45732;52.850;6.896;2023-09-08T07:27:02;13.23;;;11.68;;
59854;SDS011;45732;52.850;6.896;2023-09-08T07:29:27;15.45;;;11.13;;
59854;SDS011;45732;52.850;6.896;2023-09-08T07:31:53;13.32;;;10.95;;
59854;SDS011;45732;52.850;6.896;2023-09-08T07:34:19;13.68;;;11.43;;
59854;SDS011;45732;52.850;6.896;2023-09-08T07:36:44;14.23;;;11.52;;
59854;SDS011;45732;52.850;6.896;2023-09-08T07:39:10;13.43;;;11.68;;
59854;SDS011;45732;52.850;6.896;2023-09-08T07:41:36;14.43;;;11.82;;
59854;SDS011;45732;52.850;6.896;2023-09-08T07:44:04;12.00;;;10.70;;
59854;SDS011;45732;52.850;6.896;2023-09-08T07:46:30;12.70;;;11.30;;
59854;SDS011;45732;52.850;6.896;2023-09-08T07:48:57;12.98;;;11.10;;
59854;SDS011;45732;52.850;6.896;2023-09-08T07:51:23;15.13;;;11.98;;
59854;SDS011;45732;52.850;6.896;2023-09-08T07:53:49;16.20;;;11.35;;
59854;SDS011;45732;52.850;6.896;2023-09-08T07:56:14;13.15;;;11.38;;
59854;SDS011;45732;52.850;6.896;2023-09-08T07:58:40;12.18;;;10.52;;
59854;SDS011;45732;52.850;6.896;2023-09-08T08:01:06;11.88;;;9.32;;
59854;SDS011;45732;52.850;6.896;2023-09-08T08:03:32;12.43;;;9.80;;
59854;SDS011;45732;52.850;6.896;2023-09-08T08:05:59;12.07;;;10.18;;
59854;SDS011;45732;52.850;6.896;2023-09-08T08:08:25;11.88;;;10.55;;
59854;SDS011;45732;52.850;6.896;2023-09-08T08:10:51;11.45;;;8.98;;
59854;SDS011;45732;52.850;6.896;2023-09-08T08:13:16;10.45;;;8.65;;
59854;SDS011;45732;52.850;6.896;2023-09-08T08:15:42;12.75;;;8.30;;
59854;SDS011;45732;52.850;6.896;2023-09-08T08:18:10;11.77;;;8.25;;
59854;SDS011;45732;52.850;6.896;2023-09-08T08:20:36;11.82;;;8.65;;
59854;SDS011;45732;52.850;6.896;2023-09-08T08:23:03;11.13;;;8.20;;
59854;SDS011;45732;52.850;6.896;2023-09-08T08:25:30;11.32;;;7.93;;
59854;SDS011;45732;52.850;6.896;2023-09-08T08:27:56;10.30;;;7.80;;
59854;SDS011;45732;52.850;6.896;2023-09-08T08:30:23;8.77;;;7.28;;
59854;SDS011;45732;52.850;6.896;2023-09-08T08:32:49;9.32;;;7.88;;
59854;SDS011;45732;52.850;6.896;2023-09-08T08:35:16;12.77;;;7.65;;
59854;SDS011;45732;52.850;6.896;2023-09-08T08:37:42;10.88;;;7.40;;
59854;SDS011;45732;52.850;6.896;2023-09-08T08:40:11;9.82;;;7.18;;
59854;SDS011;45732;52.850;6.896;2023-09-08T08:42:38;8.82;;;6.50;;
59854;SDS011;45732;52.850;6.896;2023-09-08T08:45:04;9.23;;;6.30;;
59854;SDS011;45732;52.850;6.896;2023-09-08T08:47:30;10.05;;;6.35;;
59854;SDS011;45732;52.850;6.896;2023-09-08T08:49:57;7.60;;;5.40;;
59854;SDS011;45732;52.850;6.896;2023-09-08T08:52:26;9.73;;;5.95;;
59854;SDS011;45732;52.850;6.896;2023-09-08T08:54:53;7.30;;;5.40;;
59854;SDS011;45732;52.850;6.896;2023-09-08T08:57:19;9.95;;;5.70;;
59854;SDS011;45732;52.850;6.896;2023-09-08T08:59:49;7.32;;;5.43;;
59854;SDS011;45732;52.850;6.896;2023-09-08T09:02:18;8.40;;;5.55;;
59854;SDS011;45732;52.850;6.896;2023-09-08T09:04:44;9.63;;;5.45;;
59854;SDS011;45732;52.850;6.896;2023-09-08T09:07:11;8.00;;;5.32;;
59854;SDS011;45732;52.850;6.896;2023-09-08T09:09:37;7.85;;;5.18;;
59854;SDS011;45732;52.850;6.896;2023-09-08T09:12:05;13.73;;;5.45;;
59854;SDS011;45732;52.850;6.896;2023-09-08T09:14:32;8.15;;;5.20;;
59854;SDS011;45732;52.850;6.896;2023-09-08T09:16:58;8.10;;;5.93;;
59854;SDS011;45732;52.850;6.896;2023-09-08T09:19:25;8.68;;;5.50;;
59854;SDS011;45732;52.850;6.896;2023-09-08T09:21:53;8.65;;;5.28;;
59854;SDS011;45732;52.850;6.896;2023-09-08T09:26:59;10.35;;;5.88;;
59854;SDS011;45732;52.850;6.896;2023-09-08T09:29:26;8.30;;;5.15;;
59854;SDS011;45732;52.850;6.896;2023-09-08T09:31:53;9.48;;;5.47;;
59854;SDS011;45732;52.850;6.896;2023-09-08T09:34:20;8.23;;;4.63;;
59854;SDS011;45732;52.850;6.896;2023-09-08T09:36:47;10.63;;;5.30;;
59854;SDS011;45732;52.850;6.896;2023-09-08T09:39:24;9.63;;;5.28;;
59854;SDS011;45732;52.850;6.896;2023-09-08T09:41:54;12.38;;;5.93;;
59854;SDS011;45732;52.850;6.896;2023-09-08T09:44:23;10.35;;;4.90;;
59854;SDS011;45732;52.850;6.896;2023-09-08T09:46:53;8.15;;;4.90;;
59854;SDS011;45732;52.850;6.896;2023-09-08T09:49:19;8.88;;;5.13;;
59854;SDS011;45732;52.850;6.896;2023-09-08T09:51:46;9.15;;;5.15;;
59854;SDS011;45732;52.850;6.896;2023-09-08T09:54:13;9.02;;;5.20;;
59854;SDS011;45732;52.850;6.896;2023-09-08T09:56:40;9.65;;;5.07;;
59854;SDS011;45732;52.850;6.896;2023-09-08T09:59:10;8.32;;;4.90;;
59854;SDS011;45732;52.850;6.896;2023-09-08T10:01:40;9.10;;;4.72;;
59854;SDS011;45732;52.850;6.896;2023-09-08T10:04:07;7.53;;;4.43;;
59854;SDS011;45732;52.850;6.896;2023-09-08T10:06:37;8.55;;;4.72;;
59854;SDS011;45732;52.850;6.896;2023-09-08T10:09:05;7.88;;;4.30;;
59854;SDS011;45732;52.850;6.896;2023-09-08T10:11:41;7.00;;;4.45;;
59854;SDS011;45732;52.850;6.896;2023-09-08T10:14:10;7.13;;;4.57;;
59854;SDS011;45732;52.850;6.896;2023-09-08T10:16:38;7.78;;;4.88;;
59854;SDS011;45732;52.850;6.896;2023-09-08T10:19:08;7.05;;;4.85;;
59854;SDS011;45732;52.850;6.896;2023-09-08T10:22:00;8.27;;;4.82;;
59854;SDS011;45732;52.850;6.896;2023-09-08T10:24:26;10.93;;;5.75;;
59854;SDS011;45732;52.850;6.896;2023-09-08T10:26:58;8.23;;;4.50;;
59854;SDS011;45732;52.850;6.896;2023-09-08T10:29:32;7.93;;;4.72;;
59854;SDS011;45732;52.850;6.896;2023-09-08T10:31:58;8.15;;;4.43;;
59854;SDS011;45732;52.850;6.896;2023-09-08T10:34:24;7.65;;;4.70;;
59854;SDS011;45732;52.850;6.896;2023-09-08T10:36:51;8.18;;;4.63;;
59854;SDS011;45732;52.850;6.896;2023-09-08T10:44:58;8.85;;;5.28;;
59854;SDS011;45732;52.850;6.896;2023-09-08T10:47:32;8.25;;;5.35;;
59854;SDS011;45732;52.850;6.896;2023-09-08T10:50:07;8.65;;;5.05;;
59854;SDS011;45732;52.850;6.896;2023-09-08T10:52:40;8.63;;;4.82;;
59854;SDS011;45732;52.850;6.896;2023-09-08T10:55:06;12.13;;;5.35;;
59854;SDS011;45732;52.850;6.896;2023-09-08T10:57:32;8.32;;;5.07;;
59854;SDS011;45732;52.850;6.896;2023-09-08T11:00:00;10.75;;;4.80;;
59854;SDS011;45732;52.850;6.896;2023-09-08T11:02:49;8.15;;;4.85;;
59854;SDS011;45732;52.850;6.896;2023-09-08T11:05:19;8.25;;;4.95;;
59854;SDS011;45732;52.850;6.896;2023-09-08T11:07:47;8.90;;;4.78;;
59854;SDS011;45732;52.850;6.896;2023-09-08T11:10:17;8.98;;;5.03;;
59854;SDS011;45732;52.850;6.896;2023-09-08T11:12:43;8.05;;;5.15;;
59854;SDS011;45732;52.850;6.896;2023-09-08T11:15:09;9.13;;;5.00;;
59854;SDS011;45732;52.850;6.896;2023-09-08T11:17:36;8.60;;;4.90;;
59854;SDS011;45732;52.850;6.896;2023-09-08T11:20:07;12.38;;;5.57;;
59854;SDS011;45732;52.850;6.896;2023-09-08T11:22:34;8.95;;;4.57;;
59854;SDS011;45732;52.850;6.896;2023-09-08T11:25:00;11.75;;;4.78;;
59854;SDS011;45732;52.850;6.896;2023-09-08T11:27:29;7.90;;;4.72;;
59854;SDS011;45732;52.850;6.896;2023-09-08T11:29:55;8.77;;;4.65;;
59854;SDS011;45732;52.850;6.896;2023-09-08T11:32:22;7.63;;;4.70;;
59854;SDS011;45732;52.850;6.896;2023-09-08T11:34:48;9.13;;;4.82;;
59854;SDS011;45732;52.850;6.896;2023-09-08T11:37:15;8.32;;;4.32;;
59854;SDS011;45732;52.850;6.896;2023-09-08T11:39:44;8.27;;;4.60;;
59854;SDS011;45732;52.850;6.896;2023-09-08T11:42:14;8.18;;;5.07;;
59854;SDS011;45732;52.850;6.896;2023-09-08T11:44:40;7.68;;;4.47;;
59854;SDS011;45732;52.850;6.896;2023-09-08T11:47:07;8.23;;;4.47;;
59854;SDS011;45732;52.850;6.896;2023-09-08T11:49:38;8.27;;;4.50;;
59854;SDS011;45732;52.850;6.896;2023-09-08T11:52:05;7.90;;;4.38;;
59854;SDS011;45732;52.850;6.896;2023-09-08T11:54:32;8.48;;;4.70;;
59854;SDS011;45732;52.850;6.896;2023-09-08T11:57:01;9.18;;;4.47;;
59854;SDS011;45732;52.850;6.896;2023-09-08T11:59:30;9.52;;;4.32;;
59854;SDS011;45732;52.850;6.896;2023-09-08T12:01:58;7.00;;;4.50;;
59854;SDS011;45732;52.850;6.896;2023-09-08T12:04:24;7.68;;;4.20;;
59854;SDS011;45732;52.850;6.896;2023-09-08T12:06:54;6.28;;;4.28;;
59854;SDS011;45732;52.850;6.896;2023-09-08T12:09:23;7.88;;;4.70;;
59854;SDS011;45732;52.850;6.896;2023-09-08T12:11:49;8.55;;;4.78;;
59854;SDS011;45732;52.850;6.896;2023-09-08T12:14:15;9.23;;;5.10;;
59854;SDS011;45732;52.850;6.896;2023-09-08T12:16:41;8.15;;;4.75;;
59854;SDS011;45732;52.850;6.896;2023-09-08T12:19:08;8.23;;;5.03;;
59854;SDS011;45732;52.850;6.896;2023-09-08T12:21:57;8.40;;;4.63;;
59854;SDS011;45732;52.850;6.896;2023-09-08T12:27:35;9.88;;;4.75;;
59854;SDS011;45732;52.850;6.896;2023-09-08T12:30:01;8.27;;;4.38;;
59854;SDS011;45732;52.850;6.896;2023-09-08T12:32:29;10.85;;;4.40;;
59854;SDS011;45732;52.850;6.896;2023-09-08T12:34:57;7.88;;;4.82;;
59854;SDS011;45732;52.850;6.896;2023-09-08T12:37:24;7.07;;;4.85;;
59854;SDS011;45732;52.850;6.896;2023-09-08T12:39:52;8.27;;;4.47;;
59854;SDS011;45732;52.850;6.896;2023-09-08T12:42:18;9.15;;;4.65;;
59854;SDS011;45732;52.850;6.896;2023-09-08T12:44:45;10.15;;;4.50;;
59854;SDS011;45732;52.850;6.896;2023-09-08T12:47:12;7.40;;;4.78;;
59854;SDS011;45732;52.850;6.896;2023-09-08T12:49:37;8.25;;;4.60;;
59854;SDS011;45732;52.850;6.896;2023-09-08T12:52:04;7.35;;;4.90;;
59854;SDS011;45732;52.850;6.896;2023-09-08T12:54:30;7.30;;;4.57;;
59854;SDS011;45732;52.850;6.896;2023-09-08T12:56:55;8.60;;;4.93;;
59854;SDS011;45732;52.850;6.896;2023-09-08T12:59:21;7.85;;;4.70;;
59854;SDS011;45732;52.850;6.896;2023-09-08T13:01:47;7.03;;;4.53;;
59854;SDS011;45732;52.850;6.896;2023-09-08T13:04:12;9.70;;;4.90;;
59854;SDS011;45732;52.850;6.896;2023-09-08T13:06:38;9.65;;;4.75;;
59854;SDS011;45732;52.850;6.896;2023-09-08T13:09:04;7.95;;;4.90;;
59854;SDS011;45732;52.850;6.896;2023-09-08T13:11:30;7.32;;;4.75;;
59854;SDS011;45732;52.850;6.896;2023-09-08T13:13:56;6.75;;;4.20;;
59854;SDS011;45732;52.850;6.896;2023-09-08T13:16:22;8.40;;;4.55;;
59854;SDS011;45732;52.850;6.896;2023-09-08T13:18:47;7.68;;;5.18;;
59854;SDS011;45732;52.850;6.896;2023-09-08T13:21:14;8.52;;;4.68;;
59854;SDS011;45732;52.850;6.896;2023-09-08T13:23:39;6.65;;;4.30;;
59854;SDS011;45732;52.850;6.896;2023-09-08T13:26:05;8.82;;;4.80;;
59854;SDS011;45732;52.850;6.896;2023-09-08T13:28:31;8.15;;;4.53;;
59854;SDS011;45732;52.850;6.896;2023-09-08T13:30:57;9.85;;;5.05;;
59854;SDS011;45732;52.850;6.896;2023-09-08T13:33:23;8.02;;;4.60;;
59854;SDS011;45732;52.850;6.896;2023-09-08T13:35:48;8.00;;;5.22;;
59854;SDS011;45732;52.850;6.896;2023-09-08T13:38:14;9.10;;;5.07;;
59854;SDS011;45732;52.850;6.896;2023-09-08T13:40:40;8.95;;;4.70;;
59854;SDS011;45732;52.850;6.896;2023-09-08T13:43:06;7.97;;;4.70;;
59854;SDS011;45732;52.850;6.896;2023-09-08T13:45:32;7.43;;;4.50;;
59854;SDS011;45732;52.850;6.896;2023-09-08T13:47:58;8.27;;;4.45;;
59854;SDS011;45732;52.850;6.896;2023-09-08T13:50:24;8.60;;;4.80;;
59854;SDS011;45732;52.850;6.896;2023-09-08T13:52:49;7.82;;;4.72;;
59854;SDS011;45732;52.850;6.896;2023-09-08T13:55:15;8.32;;;4.38;;
59854;SDS011;45732;52.850;6.896;2023-09-08T13:57:41;8.43;;;4.45;;
59854;SDS011;45732;52.850;6.896;2023-09-08T14:00:07;6.80;;;4.97;;
59854;SDS011;45732;52.850;6.896;2023-09-08T14:02:36;6.72;;;4.68;;
59854;SDS011;45732;52.850;6.896;2023-09-08T14:05:02;9.25;;;4.70;;
59854;SDS011;45732;52.850;6.896;2023-09-08T14:07:28;8.07;;;4.57;;
59854;SDS011;45732;52.850;6.896;2023-09-08T14:09:53;6.53;;;4.40;;
59854;SDS011;45732;52.850;6.896;2023-09-08T14:12:19;6.75;;;4.40;;
59854;SDS011;45732;52.850;6.896;2023-09-08T14:14:45;8.60;;;4.72;;
59854;SDS011;45732;52.850;6.896;2023-09-08T14:17:10;9.35;;;4.13;;
59854;SDS011;45732;52.850;6.896;2023-09-08T14:19:36;7.75;;;4.63;;
59854;SDS011;45732;52.850;6.896;2023-09-08T14:22:02;9.80;;;4.72;;
59854;SDS011;45732;52.850;6.896;2023-09-08T14:24:27;8.15;;;4.50;;
59854;SDS011;45732;52.850;6.896;2023-09-08T14:26:53;7.70;;;4.60;;
59854;SDS011;45732;52.850;6.896;2023-09-08T14:29:20;6.75;;;4.30;;
59854;SDS011;45732;52.850;6.896;2023-09-08T14:31:47;7.97;;;4.80;;
59854;SDS011;45732;52.850;6.896;2023-09-08T14:34:12;11.07;;;4.90;;
59854;SDS011;45732;52.850;6.896;2023-09-08T14:36:38;6.80;;;4.03;;
59854;SDS011;45732;52.850;6.896;2023-09-08T14:39:04;7.35;;;4.50;;
59854;SDS011;45732;52.850;6.896;2023-09-08T14:41:30;8.98;;;4.15;;
59854;SDS011;45732;52.850;6.896;2023-09-08T14:43:55;8.07;;;4.38;;